sensor_id;sensor_type;location;lat;lon;timestamp;pressure;altitude;pressure_sealevel;temperature;humidity
19286;BME280;9776;50.798;6.430;2023-02-28T00:01:48;101486.97;;;2.28;52.01
19286;BME280;9776;50.798;6.430;2023-02-28T00:04:25;101485.28;;;2.27;51.93
19286;BME280;9776;50.798;6.430;2023-02-28T00:06:58;101480.91;;;2.28;52.13
19286;BME280;9776;50.798;6.430;2023-02-28T00:09:33;101482.53;;;2.31;51.85
19286;BME280;9776;50.798;6.430;2023-02-28T00:12:10;101480.84;;;2.29;51.96
19286;BME280;9776;50.798;6.430;2023-02-28T00:14:46;101479.22;;;2.27;51.98
19286;BME280;9776;50.798;6.430;2023-02-28T00:17:18;101482.72;;;2.26;51.93
19286;BME280;9776;50.798;6.430;2023-02-28T00:20:09;101482.16;;;2.19;52.22
19286;BME280;9776;50.798;6.430;2023-02-28T00:22:45;101477.09;;;2.16;52.16
19286;BME280;9776;50.798;6.430;2023-02-28T00:25:23;101490.31;;;2.12;52.27
19286;BME280;9776;50.798;6.430;2023-02-28T00:28:02;101486.94;;;2.10;52.39
19286;BME280;9776;50.798;6.430;2023-02-28T00:30:35;101491.31;;;2.09;52.36
19286;BME280;9776;50.798;6.430;2023-02-28T00:33:07;101485.19;;;2.10;52.33
19286;BME280;9776;50.798;6.430;2023-02-28T00:35:45;101492.16;;;2.10;52.34
19286;BME280;9776;50.798;6.430;2023-02-28T00:38:29;101486.94;;;2.10;52.32
19286;BME280;9776;50.798;6.430;2023-02-28T00:41:00;101493.00;;;2.10;52.42
19286;BME280;9776;50.798;6.430;2023-02-28T00:43:38;101490.31;;;2.12;52.53
19286;BME280;9776;50.798;6.430;2023-02-28T00:46:14;101493.69;;;2.14;52.45
19286;BME280;9776;50.798;6.430;2023-02-28T00:49:08;101492.03;;;2.13;52.44
19286;BME280;9776;50.798;6.430;2023-02-28T00:52:03;101492.03;;;2.13;52.60
19286;BME280;9776;50.798;6.430;2023-02-28T00:54:43;101482.50;;;2.12;52.58
19286;BME280;9776;50.798;6.430;2023-02-28T00:57:16;101495.53;;;2.12;52.68
19286;BME280;9776;50.798;6.430;2023-02-28T00:59:52;101494.81;;;2.08;52.66
19286;BME280;9776;50.798;6.430;2023-02-28T01:02:37;101493.13;;;2.07;52.67
19286;BME280;9776;50.798;6.430;2023-02-28T01:05:15;101495.78;;;2.06;52.85
19286;BME280;9776;50.798;6.430;2023-02-28T01:07:49;101490.66;;;2.04;52.76
19286;BME280;9776;50.798;6.430;2023-02-28T01:10:29;101489.88;;;2.02;52.97
19286;BME280;9776;50.798;6.430;2023-02-28T01:13:03;101498.53;;;2.03;52.89
19286;BME280;9776;50.798;6.430;2023-02-28T01:15:35;101494.38;;;1.99;52.94
19286;BME280;9776;50.798;6.430;2023-02-28T01:18:11;101497.97;;;1.96;53.22
19286;BME280;9776;50.798;6.430;2023-02-28T01:20:55;101506.81;;;1.92;53.13
19286;BME280;9776;50.798;6.430;2023-02-28T01:23:41;101497.44;;;1.88;53.23
19286;BME280;9776;50.798;6.430;2023-02-28T01:26:27;101512.28;;;1.86;53.36
19286;BME280;9776;50.798;6.430;2023-02-28T01:29:05;101509.81;;;1.83;53.44
19286;BME280;9776;50.798;6.430;2023-02-28T01:31:37;101502.91;;;1.82;53.42
19286;BME280;9776;50.798;6.430;2023-02-28T01:34:15;101497.78;;;1.81;53.37
19286;BME280;9776;50.798;6.430;2023-02-28T01:36:49;101506.44;;;1.81;53.46
19286;BME280;9776;50.798;6.430;2023-02-28T01:39:22;101507.41;;;1.79;53.47
19286;BME280;9776;50.798;6.430;2023-02-28T01:42:14;101504.09;;;1.75;53.51
19286;BME280;9776;50.798;6.430;2023-02-28T01:45:18;101505.91;;;1.73;53.56
19286;BME280;9776;50.798;6.430;2023-02-28T01:47:55;101499.97;;;1.69;53.65
19286;BME280;9776;50.798;6.430;2023-02-28T01:50:36;101501.88;;;1.66;53.69
19286;BME280;9776;50.798;6.430;2023-02-28T01:53:19;101501.09;;;1.64;53.75
19286;BME280;9776;50.798;6.430;2023-02-28T01:56:08;101493.47;;;1.59;54.04
19286;BME280;9776;50.798;6.430;2023-02-28T01:58:55;101497.00;;;1.58;54.02
19286;BME280;9776;50.798;6.430;2023-02-28T02:01:37;101490.13;;;1.56;54.05
19286;BME280;9776;50.798;6.430;2023-02-28T02:04:14;101492.69;;;1.57;54.02
19286;BME280;9776;50.798;6.430;2023-02-28T02:06:56;101486.88;;;1.51;54.22
19286;BME280;9776;50.798;6.430;2023-02-28T02:09:33;101488.72;;;1.49;54.24
19286;BME280;9776;50.798;6.430;2023-02-28T02:12:10;101483.63;;;1.46;54.36
19286;BME280;9776;50.798;6.430;2023-02-28T02:15:04;101480.19;;;1.45;54.32
19286;BME280;9776;50.798;6.430;2023-02-28T02:17:48;101485.34;;;1.47;54.33
19286;BME280;9776;50.798;6.430;2023-02-28T02:20:50;101482.06;;;1.42;54.39
19286;BME280;9776;50.798;6.430;2023-02-28T02:23:51;101480.31;;;1.42;54.39
19286;BME280;9776;50.798;6.430;2023-02-28T02:26:50;101475.19;;;1.41;54.53
19286;BME280;9776;50.798;6.430;2023-02-28T02:33:03;101478.81;;;1.37;54.50
19286;BME280;9776;50.798;6.430;2023-02-28T02:35:53;101476.97;;;1.39;54.34
19286;BME280;9776;50.798;6.430;2023-02-28T02:38:35;101476.16;;;1.38;54.52
19286;BME280;9776;50.798;6.430;2023-02-28T02:41:23;101471.00;;;1.37;54.56
19286;BME280;9776;50.798;6.430;2023-02-28T02:44:06;101468.41;;;1.37;54.46
19286;BME280;9776;50.798;6.430;2023-02-28T02:46:47;101468.53;;;1.34;54.58
19286;BME280;9776;50.798;6.430;2023-02-28T02:49:21;101468.59;;;1.32;54.67
19286;BME280;9776;50.798;6.430;2023-02-28T02:52:13;101468.66;;;1.31;54.73
19286;BME280;9776;50.798;6.430;2023-02-28T02:54:53;101481.00;;;1.26;54.80
19286;BME280;9776;50.798;6.430;2023-02-28T02:57:34;101472.25;;;1.06;55.31
19286;BME280;9776;50.798;6.430;2023-02-28T03:00:16;101472.63;;;0.97;55.51
19286;BME280;9776;50.798;6.430;2023-02-28T03:02:55;101470.50;;;0.85;55.71
19286;BME280;9776;50.798;6.430;2023-02-28T03:05:35;101472.44;;;0.80;55.78
19286;BME280;9776;50.798;6.430;2023-02-28T03:08:21;101473.69;;;0.70;55.93
19286;BME280;9776;50.798;6.430;2023-02-28T03:10:51;101466.13;;;0.64;56.05
19286;BME280;9776;50.798;6.430;2023-02-28T03:17:11;101465.28;;;0.64;56.01
19286;BME280;9776;50.798;6.430;2023-02-28T03:19:58;101462.56;;;0.67;56.07
19286;BME280;9776;50.798;6.430;2023-02-28T03:22:42;101458.41;;;0.63;56.00
19286;BME280;9776;50.798;6.430;2023-02-28T03:25:22;101457.66;;;0.59;56.23
19286;BME280;9776;50.798;6.430;2023-02-28T03:28:00;101455.69;;;0.66;56.01
19286;BME280;9776;50.798;6.430;2023-02-28T03:30:36;101452.03;;;0.70;56.04
19286;BME280;9776;50.798;6.430;2023-02-28T03:33:08;101456.47;;;0.68;56.06
19286;BME280;9776;50.798;6.430;2023-02-28T03:35:40;101460.16;;;0.62;56.20
19286;BME280;9776;50.798;6.430;2023-02-28T03:38:12;101457.13;;;0.51;56.35
19286;BME280;9776;50.798;6.430;2023-02-28T03:40:47;101455.72;;;0.42;56.44
19286;BME280;9776;50.798;6.430;2023-02-28T03:43:19;101455.59;;;0.45;56.42
19286;BME280;9776;50.798;6.430;2023-02-28T03:45:46;101460.00;;;0.43;56.64
19286;BME280;9776;50.798;6.430;2023-02-28T03:48:19;101463.44;;;0.44;56.56
19286;BME280;9776;50.798;6.430;2023-02-28T03:50:50;101462.47;;;0.46;56.50
19286;BME280;9776;50.798;6.430;2023-02-28T03:53:25;101462.78;;;0.39;56.52
19286;BME280;9776;50.798;6.430;2023-02-28T03:55:57;101464.25;;;0.23;56.83
19286;BME280;9776;50.798;6.430;2023-02-28T03:58:29;101462.97;;;0.11;57.12
19286;BME280;9776;50.798;6.430;2023-02-28T04:01:02;101459.84;;;0.02;57.33
19286;BME280;9776;50.798;6.430;2023-02-28T04:03:33;101464.28;;;-0.02;57.43
19286;BME280;9776;50.798;6.430;2023-02-28T04:06:02;101463.53;;;-0.06;57.49
19286;BME280;9776;50.798;6.430;2023-02-28T04:08:29;101460.28;;;-0.11;57.53
19286;BME280;9776;50.798;6.430;2023-02-28T04:11:03;101460.59;;;-0.20;57.85
19286;BME280;9776;50.798;6.430;2023-02-28T04:13:31;101458.06;;;-0.21;57.68
19286;BME280;9776;50.798;6.430;2023-02-28T04:15:58;101455.41;;;-0.20;57.73
19286;BME280;9776;50.798;6.430;2023-02-28T04:18:24;101467.47;;;-0.19;57.63
19286;BME280;9776;50.798;6.430;2023-02-28T04:20:51;101464.81;;;-0.17;57.71
19286;BME280;9776;50.798;6.430;2023-02-28T04:23:19;101470.19;;;-0.22;57.82
19286;BME280;9776;50.798;6.430;2023-02-28T04:25:46;101467.13;;;-0.33;58.09
19286;BME280;9776;50.798;6.430;2023-02-28T04:28:14;101474.13;;;-0.35;58.29
19286;BME280;9776;50.798;6.430;2023-02-28T04:30:41;101471.34;;;-0.30;58.06
19286;BME280;9776;50.798;6.430;2023-02-28T04:33:08;101460.91;;;-0.29;58.00
19286;BME280;9776;50.798;6.430;2023-02-28T04:35:35;101467.66;;;-0.23;57.97
19286;BME280;9776;50.798;6.430;2023-02-28T04:38:01;101470.81;;;-0.15;57.91
19286;BME280;9776;50.798;6.430;2023-02-28T04:40:29;101469.88;;;-0.13;57.89
19286;BME280;9776;50.798;6.430;2023-02-28T04:42:56;101474.09;;;-0.10;57.64
19286;BME280;9776;50.798;6.430;2023-02-28T04:45:27;101477.31;;;-0.04;57.61
19286;BME280;9776;50.798;6.430;2023-02-28T04:47:57;101477.22;;;-0.01;57.62
19286;BME280;9776;50.798;6.430;2023-02-28T04:50:26;101477.94;;;0.03;57.59
19286;BME280;9776;50.798;6.430;2023-02-28T04:53:01;101481.28;;;0.07;57.51
19286;BME280;9776;50.798;6.430;2023-02-28T04:55:36;101483.88;;;0.07;57.52
19286;BME280;9776;50.798;6.430;2023-02-28T04:58:05;101493.28;;;0.09;57.60
19286;BME280;9776;50.798;6.430;2023-02-28T05:00:36;101493.38;;;0.08;57.55
19286;BME280;9776;50.798;6.430;2023-02-28T05:03:03;101494.25;;;0.07;57.65
19286;BME280;9776;50.798;6.430;2023-02-28T05:05:32;101492.50;;;0.07;57.54
19286;BME280;9776;50.798;6.430;2023-02-28T05:08:01;101497.69;;;0.07;57.65
19286;BME280;9776;50.798;6.430;2023-02-28T05:10:35;101491.25;;;-0.06;57.82
19286;BME280;9776;50.798;6.430;2023-02-28T05:13:02;101501.47;;;-0.26;58.28
19286;BME280;9776;50.798;6.430;2023-02-28T05:15:29;101497.28;;;-0.30;58.51
19286;BME280;9776;50.798;6.430;2023-02-28T05:17:58;101495.69;;;-0.34;58.50
19286;BME280;9776;50.798;6.430;2023-02-28T05:20:24;101492.47;;;-0.41;58.64
19286;BME280;9776;50.798;6.430;2023-02-28T05:22:51;101500.28;;;-0.42;58.70
19286;BME280;9776;50.798;6.430;2023-02-28T05:25:21;101499.34;;;-0.40;58.51
19286;BME280;9776;50.798;6.430;2023-02-28T05:27:48;101494.16;;;-0.40;58.58
19286;BME280;9776;50.798;6.430;2023-02-28T05:30:15;101495.84;;;-0.39;58.38
19286;BME280;9776;50.798;6.430;2023-02-28T05:32:49;101487.13;;;-0.36;58.46
19286;BME280;9776;50.798;6.430;2023-02-28T05:35:20;101487.88;;;-0.33;58.24
19286;BME280;9776;50.798;6.430;2023-02-28T05:40:22;101488.66;;;-0.31;58.20
19286;BME280;9776;50.798;6.430;2023-02-28T05:42:50;101500.72;;;-0.30;58.16
19286;BME280;9776;50.798;6.430;2023-02-28T05:45:18;101499.19;;;-0.35;58.22
19286;BME280;9776;50.798;6.430;2023-02-28T05:47:45;101492.56;;;-0.44;58.49
19286;BME280;9776;50.798;6.430;2023-02-28T05:50:12;101498.66;;;-0.45;58.53
19286;BME280;9776;50.798;6.430;2023-02-28T05:52:40;101496.06;;;-0.45;58.35
19286;BME280;9776;50.798;6.430;2023-02-28T05:55:08;101490.28;;;-0.53;58.50
19286;BME280;9776;50.798;6.430;2023-02-28T05:57:38;101503.09;;;-0.48;58.58
19286;BME280;9776;50.798;6.430;2023-02-28T06:00:07;101495.47;;;-0.53;58.65
19286;BME280;9776;50.798;6.430;2023-02-28T06:02:34;101492.97;;;-0.56;58.58
19286;BME280;9776;50.798;6.430;2023-02-28T06:05:01;101492.03;;;-0.53;58.63
19286;BME280;9776;50.798;6.430;2023-02-28T06:07:27;101498.94;;;-0.54;58.62
19286;BME280;9776;50.798;6.430;2023-02-28T06:09:55;101492.88;;;-0.53;58.49
19286;BME280;9776;50.798;6.430;2023-02-28T06:12:23;101491.38;;;-0.60;58.68
19286;BME280;9776;50.798;6.430;2023-02-28T06:14:51;101490.47;;;-0.59;58.62
19286;BME280;9776;50.798;6.430;2023-02-28T06:17:17;101492.38;;;-0.64;58.76
19286;BME280;9776;50.798;6.430;2023-02-28T06:19:44;101501.13;;;-0.67;58.74
19286;BME280;9776;50.798;6.430;2023-02-28T06:22:13;101499.44;;;-0.69;58.75
19286;BME280;9776;50.798;6.430;2023-02-28T06:24:45;101502.09;;;-0.71;58.81
19286;BME280;9776;50.798;6.430;2023-02-28T06:27:17;101503.81;;;-0.70;58.77
19286;BME280;9776;50.798;6.430;2023-02-28T06:29:45;101503.81;;;-0.70;58.85
19286;BME280;9776;50.798;6.430;2023-02-28T06:32:12;101508.94;;;-0.68;58.75
19286;BME280;9776;50.798;6.430;2023-02-28T06:34:45;101506.63;;;-0.77;58.76
19286;BME280;9776;50.798;6.430;2023-02-28T06:37:12;101511.22;;;-0.85;59.11
19286;BME280;9776;50.798;6.430;2023-02-28T06:39:42;101513.16;;;-0.92;59.11
19286;BME280;9776;50.798;6.430;2023-02-28T06:42:09;101522.66;;;-0.92;59.16
19286;BME280;9776;50.798;6.430;2023-02-28T06:44:45;101523.31;;;-0.86;59.10
19286;BME280;9776;50.798;6.430;2023-02-28T06:47:12;101525.78;;;-0.81;58.96
19286;BME280;9776;50.798;6.430;2023-02-28T06:49:39;101532.53;;;-0.76;58.65
19286;BME280;9776;50.798;6.430;2023-02-28T06:52:06;101528.06;;;-0.72;58.63
19286;BME280;9776;50.798;6.430;2023-02-28T06:54:35;101532.25;;;-0.68;58.66
19286;BME280;9776;50.798;6.430;2023-02-28T06:57:04;101534.66;;;-0.62;58.52
19286;BME280;9776;50.798;6.430;2023-02-28T06:59:31;101539.69;;;-0.58;58.38
19286;BME280;9776;50.798;6.430;2023-02-28T07:01:59;101541.34;;;-0.55;58.53
19286;BME280;9776;50.798;6.430;2023-02-28T07:04:28;101547.25;;;-0.50;58.36
19286;BME280;9776;50.798;6.430;2023-02-28T07:06:56;101553.13;;;-0.45;58.30
19286;BME280;9776;50.798;6.430;2023-02-28T07:09:23;101560.13;;;-0.48;58.39
19286;BME280;9776;50.798;6.430;2023-02-28T07:12:00;101557.50;;;-0.47;58.42
19286;BME280;9776;50.798;6.430;2023-02-28T07:14:27;101558.19;;;-0.42;58.45
19286;BME280;9776;50.798;6.430;2023-02-28T07:16:53;101557.22;;;-0.38;58.35
19286;BME280;9776;50.798;6.430;2023-02-28T07:19:22;101552.81;;;-0.36;58.40
19286;BME280;9776;50.798;6.430;2023-02-28T07:21:48;101557.06;;;-0.33;58.48
19286;BME280;9776;50.798;6.430;2023-02-28T07:24:15;101566.44;;;-0.29;58.39
19286;BME280;9776;50.798;6.430;2023-02-28T07:26:43;101560.34;;;-0.28;58.35
19286;BME280;9776;50.798;6.430;2023-02-28T07:29:13;101565.88;;;-0.39;58.89
19286;BME280;9776;50.798;6.430;2023-02-28T07:31:43;101569.38;;;-0.40;58.93
19286;BME280;9776;50.798;6.430;2023-02-28T07:34:09;101561.34;;;-0.32;58.70
19286;BME280;9776;50.798;6.430;2023-02-28T07:36:38;101561.19;;;-0.28;58.92
19286;BME280;9776;50.798;6.430;2023-02-28T07:39:05;101563.09;;;-0.33;59.01
19286;BME280;9776;50.798;6.430;2023-02-28T07:41:32;101562.72;;;-0.22;58.92
19286;BME280;9776;50.798;6.430;2023-02-28T07:44:08;101569.16;;;-0.08;58.85
19286;BME280;9776;50.798;6.430;2023-02-28T07:46:35;101559.44;;;-0.03;58.62
19286;BME280;9776;50.798;6.430;2023-02-28T07:49:02;101561.75;;;0.07;58.64
19286;BME280;9776;50.798;6.430;2023-02-28T07:51:29;101562.22;;;0.18;58.30
19286;BME280;9776;50.798;6.430;2023-02-28T07:53:58;101560.22;;;0.26;58.28
19286;BME280;9776;50.798;6.430;2023-02-28T07:56:24;101556.47;;;0.33;58.19
19286;BME280;9776;50.798;6.430;2023-02-28T07:58:54;101553.66;;;0.39;58.08
19286;BME280;9776;50.798;6.430;2023-02-28T08:01:26;101555.94;;;0.48;57.98
19286;BME280;9776;50.798;6.430;2023-02-28T08:03:53;101560.06;;;0.53;57.80
19286;BME280;9776;50.798;6.430;2023-02-28T08:06:21;101547.72;;;0.60;57.70
19286;BME280;9776;50.798;6.430;2023-02-28T08:08:48;101555.28;;;0.66;57.61
19286;BME280;9776;50.798;6.430;2023-02-28T08:11:18;101558.53;;;0.71;57.58
19286;BME280;9776;50.798;6.430;2023-02-28T08:13:45;101560.91;;;0.77;57.33
19286;BME280;9776;50.798;6.430;2023-02-28T08:16:14;101558.97;;;0.82;57.15
19286;BME280;9776;50.798;6.430;2023-02-28T08:18:46;101556.19;;;0.87;56.95
19286;BME280;9776;50.798;6.430;2023-02-28T08:21:13;101561.91;;;0.96;56.84
19286;BME280;9776;50.798;6.430;2023-02-28T08:23:40;101559.84;;;1.04;56.53
19286;BME280;9776;50.798;6.430;2023-02-28T08:26:08;101561.25;;;1.13;56.31
19286;BME280;9776;50.798;6.430;2023-02-28T08:28:37;101556.53;;;1.23;55.85
19286;BME280;9776;50.798;6.430;2023-02-28T08:31:07;101557.09;;;1.31;55.40
19286;BME280;9776;50.798;6.430;2023-02-28T08:33:34;101558.53;;;1.38;54.80
19286;BME280;9776;50.798;6.430;2023-02-28T08:36:01;101556.56;;;1.44;54.50
19286;BME280;9776;50.798;6.430;2023-02-28T08:38:28;101557.13;;;1.51;54.27
19286;BME280;9776;50.798;6.430;2023-02-28T08:40:57;101564.56;;;1.60;54.16
19286;BME280;9776;50.798;6.430;2023-02-28T08:43:25;101560.09;;;1.63;53.55
19286;BME280;9776;50.798;6.430;2023-02-28T08:45:54;101566.47;;;1.77;53.39
19286;BME280;9776;50.798;6.430;2023-02-28T08:48:22;101561.00;;;1.83;52.99
19286;BME280;9776;50.798;6.430;2023-02-28T08:50:55;101553.06;;;1.86;52.57
19286;BME280;9776;50.798;6.430;2023-02-28T08:53:26;101557.19;;;1.91;52.02
19286;BME280;9776;50.798;6.430;2023-02-28T08:56:00;101561.22;;;1.98;51.54
19286;BME280;9776;50.798;6.430;2023-02-28T08:58:27;101554.97;;;2.02;50.89
19286;BME280;9776;50.798;6.430;2023-02-28T09:00:56;101563.25;;;2.12;50.45
19286;BME280;9776;50.798;6.430;2023-02-28T09:03:23;101555.81;;;2.23;50.29
19286;BME280;9776;50.798;6.430;2023-02-28T09:05:54;101557.97;;;2.34;49.81
19286;BME280;9776;50.798;6.430;2023-02-28T09:08:22;101556.72;;;2.42;49.14
19286;BME280;9776;50.798;6.430;2023-02-28T09:10:55;101554.47;;;2.53;48.44
19286;BME280;9776;50.798;6.430;2023-02-28T09:13:23;101548.75;;;2.64;47.89
19286;BME280;9776;50.798;6.430;2023-02-28T09:15:51;101549.13;;;2.75;46.73
19286;BME280;9776;50.798;6.430;2023-02-28T09:18:20;101548.56;;;2.87;46.09
19286;BME280;9776;50.798;6.430;2023-02-28T09:20:53;101543.44;;;3.21;45.66
19286;BME280;9776;50.798;6.430;2023-02-28T09:23:21;101542.91;;;3.68;43.61
19286;BME280;9776;50.798;6.430;2023-02-28T09:26:13;101548.69;;;5.66;40.49
19286;BME280;9776;50.798;6.430;2023-02-28T09:28:42;101543.28;;;7.91;37.19
19286;BME280;9776;50.798;6.430;2023-02-28T09:31:16;101540.16;;;9.82;34.19
19286;BME280;9776;50.798;6.430;2023-02-28T09:33:48;101528.53;;;10.86;32.35
19286;BME280;9776;50.798;6.430;2023-02-28T09:36:16;101522.78;;;10.92;31.14
19286;BME280;9776;50.798;6.430;2023-02-28T09:38:44;101516.78;;;11.64;30.53
19286;BME280;9776;50.798;6.430;2023-02-28T09:41:14;101519.72;;;12.23;29.22
19286;BME280;9776;50.798;6.430;2023-02-28T09:43:45;101531.13;;;12.24;28.42
19286;BME280;9776;50.798;6.430;2023-02-28T09:46:31;101516.31;;;12.12;28.50
19286;BME280;9776;50.798;6.430;2023-02-28T09:49:06;101527.47;;;12.76;27.70
19286;BME280;9776;50.798;6.430;2023-02-28T09:51:41;101520.38;;;12.76;27.72
19286;BME280;9776;50.798;6.430;2023-02-28T09:54:13;101519.84;;;12.82;27.27
19286;BME280;9776;50.798;6.430;2023-02-28T09:56:46;101527.47;;;12.76;26.99
19286;BME280;9776;50.798;6.430;2023-02-28T09:59:29;101519.81;;;11.91;28.01
19286;BME280;9776;50.798;6.430;2023-02-28T10:02:04;101518.25;;;10.60;30.04
19286;BME280;9776;50.798;6.430;2023-02-28T10:04:42;101524.81;;;10.88;28.85
19286;BME280;9776;50.798;6.430;2023-02-28T10:07:19;101525.09;;;11.91;26.81
19286;BME280;9776;50.798;6.430;2023-02-28T10:09:53;101514.56;;;12.92;25.53
19286;BME280;9776;50.798;6.430;2023-02-28T10:12:21;101517.09;;;14.28;24.58
19286;BME280;9776;50.798;6.430;2023-02-28T10:14:53;101511.59;;;14.48;23.85
19286;BME280;9776;50.798;6.430;2023-02-28T10:17:22;101523.78;;;14.41;24.37
19286;BME280;9776;50.798;6.430;2023-02-28T10:19:58;101520.34;;;14.58;24.35
19286;BME280;9776;50.798;6.430;2023-02-28T10:22:29;101519.00;;;14.82;24.11
19286;BME280;9776;50.798;6.430;2023-02-28T10:25:04;101513.25;;;15.04;23.87
19286;BME280;9776;50.798;6.430;2023-02-28T10:27:32;101524.84;;;14.02;24.85
19286;BME280;9776;50.798;6.430;2023-02-28T10:30:00;101527.06;;;14.06;24.69
19286;BME280;9776;50.798;6.430;2023-02-28T10:32:30;101525.28;;;14.53;23.96
19286;BME280;9776;50.798;6.430;2023-02-28T10:35:00;101531.66;;;14.33;23.66
19286;BME280;9776;50.798;6.430;2023-02-28T10:37:27;101521.22;;;14.49;23.73
19286;BME280;9776;50.798;6.430;2023-02-28T10:39:54;101513.09;;;15.50;22.70
19286;BME280;9776;50.798;6.430;2023-02-28T10:42:23;101509.94;;;16.59;21.92
19286;BME280;9776;50.798;6.430;2023-02-28T10:45:06;101508.31;;;16.74;21.09
19286;BME280;9776;50.798;6.430;2023-02-28T10:47:34;101517.22;;;17.97;20.61
19286;BME280;9776;50.798;6.430;2023-02-28T10:50:03;101510.13;;;17.32;20.37
19286;BME280;9776;50.798;6.430;2023-02-28T10:52:37;101501.78;;;17.11;20.66
19286;BME280;9776;50.798;6.430;2023-02-28T10:55:19;101506.66;;;16.73;20.48
19286;BME280;9776;50.798;6.430;2023-02-28T10:57:47;101509.16;;;16.49;20.46
19286;BME280;9776;50.798;6.430;2023-02-28T11:00:16;101507.88;;;15.58;21.54
19286;BME280;9776;50.798;6.430;2023-02-28T11:02:44;101512.44;;;15.66;21.34
19286;BME280;9776;50.798;6.430;2023-02-28T11:05:27;101502.09;;;16.06;20.85
19286;BME280;9776;50.798;6.430;2023-02-28T11:07:56;101492.41;;;15.79;21.35
19286;BME280;9776;50.798;6.430;2023-02-28T11:10:26;101487.06;;;15.79;21.43
19286;BME280;9776;50.798;6.430;2023-02-28T11:12:55;101493.69;;;16.94;20.66
19286;BME280;9776;50.798;6.430;2023-02-28T11:15:24;101498.09;;;15.84;21.13
19286;BME280;9776;50.798;6.430;2023-02-28T11:17:57;101495.56;;;15.57;21.41
19286;BME280;9776;50.798;6.430;2023-02-28T11:20:28;101488.25;;;17.20;20.53
19286;BME280;9776;50.798;6.430;2023-02-28T11:22:57;101485.06;;;18.85;19.00
19286;BME280;9776;50.798;6.430;2023-02-28T11:25:26;101484.50;;;19.51;18.36
19286;BME280;9776;50.798;6.430;2023-02-28T11:27:54;101485.88;;;19.47;18.66
19286;BME280;9776;50.798;6.430;2023-02-28T11:30:26;101478.03;;;19.97;18.12
19286;BME280;9776;50.798;6.430;2023-02-28T11:32:54;101478.88;;;18.37;19.61
19286;BME280;9776;50.798;6.430;2023-02-28T11:35:28;101482.41;;;18.30;19.31
19286;BME280;9776;50.798;6.430;2023-02-28T11:37:57;101477.03;;;18.38;19.11
19286;BME280;9776;50.798;6.430;2023-02-28T11:40:30;101476.22;;;18.76;18.91
19286;BME280;9776;50.798;6.430;2023-02-28T11:43:06;101482.72;;;16.97;20.16
19286;BME280;9776;50.798;6.430;2023-02-28T11:45:45;101485.09;;;16.59;20.25
19286;BME280;9776;50.798;6.430;2023-02-28T11:48:20;101477.44;;;17.30;20.00
19286;BME280;9776;50.798;6.430;2023-02-28T11:50:57;101483.31;;;19.22;18.34
19286;BME280;9776;50.798;6.430;2023-02-28T11:53:39;101470.16;;;19.44;18.07
19286;BME280;9776;50.798;6.430;2023-02-28T11:56:17;101466.38;;;19.75;17.83
19286;BME280;9776;50.798;6.430;2023-02-28T11:58:52;101481.16;;;20.53;17.20
19286;BME280;9776;50.798;6.430;2023-02-28T12:01:38;101475.88;;;20.74;16.93
19286;BME280;9776;50.798;6.430;2023-02-28T12:04:17;101483.13;;;18.07;18.65
19286;BME280;9776;50.798;6.430;2023-02-28T12:06:53;101481.78;;;17.39;19.23
19286;BME280;9776;50.798;6.430;2023-02-28T12:09:41;101471.84;;;19.37;18.21
19286;BME280;9776;50.798;6.430;2023-02-28T12:12:21;101473.88;;;21.54;16.71
19286;BME280;9776;50.798;6.430;2023-02-28T12:18:05;101473.03;;;22.65;15.73
19286;BME280;9776;50.798;6.430;2023-02-28T12:20:39;101471.41;;;23.50;15.54
19286;BME280;9776;50.798;6.430;2023-02-28T12:23:26;101470.53;;;24.22;14.89
19286;BME280;9776;50.798;6.430;2023-02-28T12:26:05;101462.44;;;24.93;14.47
19286;BME280;9776;50.798;6.430;2023-02-28T12:28:38;101457.03;;;24.93;14.50
19286;BME280;9776;50.798;6.430;2023-02-28T12:31:11;101451.06;;;25.15;14.74
19286;BME280;9776;50.798;6.430;2023-02-28T12:33:44;101459.59;;;25.44;14.52
19286;BME280;9776;50.798;6.430;2023-02-28T12:36:13;101448.78;;;24.17;15.00
19286;BME280;9776;50.798;6.430;2023-02-28T12:38:47;101452.94;;;23.87;15.09
19286;BME280;9776;50.798;6.430;2023-02-28T12:41:17;101437.34;;;24.02;15.05
19286;BME280;9776;50.798;6.430;2023-02-28T12:43:49;101438.84;;;23.78;14.96
19286;BME280;9776;50.798;6.430;2023-02-28T12:46:19;101443.56;;;23.24;15.08
19286;BME280;9776;50.798;6.430;2023-02-28T12:48:52;101433.06;;;21.44;16.14
19286;BME280;9776;50.798;6.430;2023-02-28T12:51:21;101429.81;;;19.83;17.21
19286;BME280;9776;50.798;6.430;2023-02-28T12:53:57;101432.50;;;20.41;17.13
19286;BME280;9776;50.798;6.430;2023-02-28T12:56:34;101432.75;;;21.11;16.50
19286;BME280;9776;50.798;6.430;2023-02-28T12:59:13;101426.09;;;21.49;16.36
19286;BME280;9776;50.798;6.430;2023-02-28T13:02:09;101413.53;;;22.12;16.05
19286;BME280;9776;50.798;6.430;2023-02-28T13:05:13;101410.94;;;22.86;15.37
19286;BME280;9776;50.798;6.430;2023-02-28T13:08:07;101411.19;;;22.43;15.57
19286;BME280;9776;50.798;6.430;2023-02-28T13:10:40;101403.53;;;21.72;15.87
19286;BME280;9776;50.798;6.430;2023-02-28T13:13:13;101397.16;;;21.24;16.32
19286;BME280;9776;50.798;6.430;2023-02-28T13:15:41;101406.66;;;20.33;17.06
19286;BME280;9776;50.798;6.430;2023-02-28T13:18:29;101402.72;;;19.92;17.10
19286;BME280;9776;50.798;6.430;2023-02-28T13:20:57;101403.53;;;19.63;17.18
19286;BME280;9776;50.798;6.430;2023-02-28T13:23:40;101396.91;;;19.14;17.22
19286;BME280;9776;50.798;6.430;2023-02-28T13:26:09;101389.63;;;19.22;17.59
19286;BME280;9776;50.798;6.430;2023-02-28T13:29:36;101390.91;;;19.87;16.94
19286;BME280;9776;50.798;6.430;2023-02-28T13:32:34;101392.59;;;20.02;16.91
19286;BME280;9776;50.798;6.430;2023-02-28T13:38:33;101392.09;;;18.48;18.18
19286;BME280;9776;50.798;6.430;2023-02-28T13:44:17;101374.78;;;17.97;18.71
19286;BME280;9776;50.798;6.430;2023-02-28T13:47:27;101384.53;;;17.41;18.92
19286;BME280;9776;50.798;6.430;2023-02-28T13:50:14;101387.31;;;16.33;19.63
19286;BME280;9776;50.798;6.430;2023-02-28T13:52:48;101382.03;;;15.48;20.55
19286;BME280;9776;50.798;6.430;2023-02-28T13:55:24;101387.34;;;14.42;21.59
19286;BME280;9776;50.798;6.430;2023-02-28T13:58:09;101386.16;;;13.15;22.77
19286;BME280;9776;50.798;6.430;2023-02-28T14:00:58;101376.44;;;12.07;23.56